Time;durP1;ratioP1;P1;durP2;ratioP2;P2;SDS_P1;SDS_P2;PMS_P1;PMS_P2;Temp;Humidity;BMP_temperature;BMP_pressure;BME280_temperature;BME280_humidity;BME280_pressure;Samples;Min_cycle;Max_cycle;Signal;HPM_P1;HPM_P2
2022/09/13 00:01:52;;;;;;;5.00;4.07;;;15.10;73.00;;;;;;5029185;28;20043;-75
2022/09/13 00:04:17;;;;;;;4.55;3.60;;;15.10;73.20;;;;;;5075563;28;20140;-74
2022/09/13 00:06:43;;;;;;;6.25;4.22;;;15.10;73.20;;;;;;5059055;28;20439;-75
2022/09/13 00:09:09;;;;;;;4.65;3.67;;;15.00;73.30;;;;;;5057126;28;20044;-75
2022/09/13 00:11:34;;;;;;;12.38;3.40;;;15.00;73.40;;;;;;5078299;28;20040;-74
2022/09/13 00:14:00;;;;;;;4.10;3.50;;;15.00;73.50;;;;;;5075662;28;20044;-76
2022/09/13 00:16:28;;;;;;;7.43;3.75;;;15.00;73.50;;;;;;5040897;28;20067;-77
2022/09/13 00:18:53;;;;;;;6.60;3.80;;;14.90;73.60;;;;;;5058786;28;20119;-75
2022/09/13 00:21:20;;;;;;;5.00;4.07;;;14.90;73.60;;;;;;5061725;28;20483;-75
2022/09/13 00:23:47;;;;;;;7.00;4.60;;;14.90;73.60;;;;;;5043963;28;20032;-75
2022/09/13 00:26:14;;;;;;;4.43;3.83;;;14.80;73.60;;;;;;5055853;28;20048;-74
2022/09/13 00:28:40;;;;;;;5.25;3.90;;;14.80;74.00;;;;;;5045382;28;20032;-75
2022/09/13 00:31:06;;;;;;;4.70;3.85;;;14.70;74.00;;;;;;5058024;28;20779;-75
2022/09/13 00:33:32;;;;;;;4.82;3.88;;;14.70;74.10;;;;;;5042081;28;20079;-75
2022/09/13 00:35:58;;;;;;;4.55;3.58;;;14.70;74.20;;;;;;5027207;28;20048;-75
2022/09/13 00:38:23;;;;;;;5.00;3.60;;;14.70;74.20;;;;;;5088154;28;20067;-74
2022/09/13 00:40:49;;;;;;;5.05;4.43;;;14.70;74.20;;;;;;5075982;28;20025;-75
2022/09/13 00:43:19;;;;;;;4.32;3.55;;;14.70;74.20;;;;;;5050299;28;20052;-76
2022/09/13 00:45:45;;;;;;;5.60;4.05;;;14.60;74.50;;;;;;5055888;28;20038;-74
2022/09/13 00:48:19;;;;;;;6.80;3.75;;;14.60;74.40;;;;;;5056193;28;20079;-75
2022/09/13 00:50:52;;;;;;;6.32;3.30;;;14.60;74.60;;;;;;5057249;28;20055;-75
2022/09/13 00:53:30;;;;;;;4.70;3.53;;;14.50;74.50;;;;;;5039596;28;20040;-74
2022/09/13 00:56:05;;;;;;;7.95;4.25;;;14.50;74.50;;;;;;5072619;28;20523;-75
2022/09/13 00:58:33;;;;;;;3.90;3.50;;;14.40;74.50;;;;;;5072350;28;20037;-75
2022/09/13 01:00:59;;;;;;;4.72;3.80;;;14.40;74.80;;;;;;5049284;28;20029;-74
2022/09/13 01:03:26;;;;;;;5.72;3.78;;;14.40;74.70;;;;;;5054150;28;20670;-75
2022/09/13 01:05:57;;;;;;;6.85;4.50;;;14.40;74.80;;;;;;5041717;28;20424;-76
2022/09/13 01:08:23;;;;;;;7.50;3.83;;;14.40;74.90;;;;;;5055123;28;20404;-74
2022/09/13 01:10:49;;;;;;;5.80;4.20;;;14.30;75.00;;;;;;5062501;28;20032;-75
2022/09/13 01:13:19;;;;;;;8.35;3.97;;;14.30;75.10;;;;;;5059100;28;20124;-75
2022/09/13 01:15:45;;;;;;;5.25;3.53;;;14.30;75.20;;;;;;5060593;28;20418;-75
2022/09/13 01:18:11;;;;;;;5.20;4.13;;;14.20;75.20;;;;;;5041081;28;20646;-75
2022/09/13 01:20:51;;;;;;;7.43;3.63;;;14.30;75.30;;;;;;5030678;28;20036;-75
2022/09/13 01:23:25;;;;;;;5.50;4.07;;;14.30;75.80;;;;;;5038539;28;20044;-74
2022/09/13 01:26:14;;;;;;;6.13;3.85;;;14.30;75.60;;;;;;5052804;28;20488;-76
2022/09/13 01:28:55;;;;;;;6.47;3.65;;;14.30;75.40;;;;;;5066156;28;20059;-75
2022/09/13 01:31:41;;;;;;;4.68;3.85;;;14.20;75.70;;;;;;5074601;28;20056;-75
2022/09/13 01:34:15;;;;;;;4.75;4.03;;;14.20;75.40;;;;;;5076816;28;20492;-76
2022/09/13 01:37:22;;;;;;;4.60;3.53;;;14.20;75.50;;;;;;5044667;28;20526;-75
2022/09/13 01:39:59;;;;;;;4.97;4.10;;;14.10;75.70;;;;;;5047517;28;20032;-75
2022/09/13 01:42:24;;;;;;;8.77;4.15;;;14.10;75.70;;;;;;5059750;28;20423;-76
2022/09/13 01:45:28;;;;;;;8.45;4.18;;;14.10;75.50;;;;;;5075467;28;20569;-76
2022/09/13 01:47:59;;;;;;;6.60;3.95;;;14.10;75.70;;;;;;5031383;28;20050;-76
2022/09/13 01:50:44;;;;;;;4.30;3.90;;;14.10;75.60;;;;;;5096072;28;20055;-76
2022/09/13 01:53:31;;;;;;;4.90;3.70;;;14.10;76.50;;;;;;5059441;28;20094;-76
2022/09/13 01:55:56;;;;;;;5.22;4.18;;;14.00;75.90;;;;;;5045812;28;20032;-75
2022/09/13 01:58:49;;;;;;;4.00;3.17;;;14.00;75.60;;;;;;5078889;28;20127;-74
2022/09/13 02:01:23;;;;;;;6.15;4.13;;;14.00;75.70;;;;;;5059889;28;20062;-75
2022/09/13 02:03:55;;;;;;;4.57;3.67;;;14.00;76.00;;;;;;5032189;28;20039;-75
2022/09/13 02:06:35;;;;;;;4.13;3.65;;;13.90;75.80;;;;;;5049536;28;20526;-76
2022/09/13 02:09:03;;;;;;;8.98;4.80;;;14.00;75.80;;;;;;5047269;28;20613;-75
2022/09/13 02:11:29;;;;;;;5.70;4.70;;;13.90;75.80;;;;;;5055401;28;20051;-75
2022/09/13 02:14:11;;;;;;;6.18;4.72;;;13.90;75.80;;;;;;5070834;28;20051;-75
2022/09/13 02:16:54;;;;;;;5.93;4.07;;;13.80;76.10;;;;;;5071130;28;20029;-75
2022/09/13 02:19:32;;;;;;;6.45;4.32;;;13.70;76.10;;;;;;5062599;28;20031;-75
2022/09/13 02:21:58;;;;;;;6.72;4.35;;;13.70;76.30;;;;;;5049632;28;20029;-77
2022/09/13 02:24:29;;;;;;;6.63;4.65;;;13.60;76.30;;;;;;5053663;28;20146;-76
2022/09/13 02:26:55;;;;;;;7.15;4.30;;;13.60;76.60;;;;;;5033558;28;20036;-75
2022/09/13 02:29:22;;;;;;;6.75;4.47;;;13.50;76.70;;;;;;5062699;28;20044;-75
2022/09/13 02:32:10;;;;;;;5.78;4.00;;;13.50;76.80;;;;;;5050320;28;20036;-76
2022/09/13 02:34:39;;;;;;;5.90;4.25;;;13.60;77.20;;;;;;5075515;28;20039;-74
2022/09/13 02:37:05;;;;;;;5.72;4.10;;;13.60;77.00;;;;;;5054794;28;20036;-76
2022/09/13 02:39:31;;;;;;;3.72;3.25;;;13.50;76.90;;;;;;5042202;28;20032;-76
2022/09/13 02:42:07;;;;;;;6.72;4.38;;;13.40;77.10;;;;;;5042921;28;20039;-75
2022/09/13 02:44:41;;;;;;;6.28;3.65;;;13.40;77.40;;;;;;5043001;28;20049;-75
2022/09/13 02:47:34;;;;;;;5.13;4.07;;;13.40;77.30;;;;;;5073824;28;20035;-74
2022/09/13 02:50:24;;;;;;;4.88;3.88;;;13.40;77.60;;;;;;5072164;28;20040;-75
2022/09/13 02:52:50;;;;;;;4.45;3.90;;;13.40;77.40;;;;;;5070027;28;20040;-75
2022/09/13 02:55:24;;;;;;;4.28;3.63;;;13.40;77.30;;;;;;5072365;28;20110;-75
2022/09/13 02:57:58;;;;;;;6.05;3.70;;;13.50;77.40;;;;;;5049364;28;20498;-76
2022/09/13 03:00:24;;;;;;;4.95;3.92;;;13.50;77.40;;;;;;5076489;28;20062;-75
2022/09/13 03:02:49;;;;;;;7.82;4.10;;;13.50;77.20;;;;;;5062412;28;20060;-75
2022/09/13 03:05:15;;;;;;;7.45;4.53;;;13.50;77.30;;;;;;5030173;28;20107;-74
2022/09/13 03:07:41;;;;;;;7.20;4.55;;;13.50;77.40;;;;;;5055675;28;20784;-77
2022/09/13 03:10:08;;;;;;;7.22;4.35;;;13.50;77.50;;;;;;5056877;28;20040;-75
2022/09/13 03:12:43;;;;;;;6.22;4.45;;;13.50;77.60;;;;;;5044569;28;20041;-75
2022/09/13 03:15:44;;;;;;;8.80;3.92;;;13.40;77.60;;;;;;5074656;28;20098;-75
2022/09/13 03:18:32;;;;;;;5.45;4.22;;;13.40;77.80;;;;;;5063558;28;20044;-75
2022/09/13 03:21:10;;;;;;;5.38;3.97;;;13.40;77.80;;;;;;5061815;28;20032;-76
2022/09/13 03:23:55;;;;;;;5.15;4.20;;;13.40;77.50;;;;;;5063633;28;20063;-75
2022/09/13 03:26:45;;;;;;;5.80;3.95;;;13.30;78.00;;;;;;5055914;28;20154;-75
2022/09/13 03:29:32;;;;;;;5.75;4.20;;;13.30;78.10;;;;;;5061573;28;20032;-76
2022/09/13 03:32:16;;;;;;;7.85;4.25;;;13.20;77.90;;;;;;5079166;28;20036;-75
2022/09/13 03:34:50;;;;;;;5.57;4.07;;;13.20;78.10;;;;;;5071991;28;20479;-75
2022/09/13 03:37:48;;;;;;;7.40;4.57;;;13.20;78.00;;;;;;5069871;28;20123;-75
2022/09/13 03:40:51;;;;;;;5.18;4.18;;;13.20;78.20;;;;;;5062547;28;20036;-75
2022/09/13 03:43:37;;;;;;;4.10;3.70;;;13.20;78.20;;;;;;5027938;28;20047;-75
2022/09/13 03:46:08;;;;;;;6.03;4.13;;;13.20;78.40;;;;;;5046228;28;20055;-74
2022/09/13 03:48:36;;;;;;;;;;;13.20;78.00;;;;;;5058006;28;20032;-75
2022/09/13 03:51:04;;;;;;;6.05;3.63;;;13.20;77.80;;;;;;5058261;28;20006;-75
2022/09/13 03:53:29;;;;;;;5.53;4.47;;;13.20;77.70;;;;;;5058039;28;20043;-75
2022/09/13 03:55:55;;;;;;;4.63;3.60;;;13.20;77.70;;;;;;5046746;28;20044;-75
2022/09/13 03:58:20;;;;;;;6.07;4.40;;;13.30;77.90;;;;;;5076779;28;20036;-75
2022/09/13 04:00:46;;;;;;;6.68;4.00;;;13.30;77.80;;;;;;5075134;28;20052;-75
2022/09/13 04:03:12;;;;;;;7.20;3.92;;;13.20;77.80;;;;;;5049175;28;21608;-75
2022/09/13 04:05:38;;;;;;;6.00;3.90;;;13.20;77.90;;;;;;5046483;28;20710;-75
2022/09/13 04:08:04;;;;;;;5.22;3.42;;;13.20;77.90;;;;;;5074631;28;20043;-75
2022/09/13 04:10:31;;;;;;;4.05;3.65;;;13.20;77.90;;;;;;5059854;28;20063;-75
2022/09/13 04:12:58;;;;;;;11.90;4.70;;;13.20;77.90;;;;;;5075942;28;20115;-75
2022/09/13 04:15:23;;;;;;;7.55;5.20;;;13.20;77.90;;;;;;5064582;28;20043;-75
2022/09/13 04:17:49;;;;;;;6.07;3.92;;;13.20;78.00;;;;;;5049358;28;20450;-76
2022/09/13 04:20:15;;;;;;;5.40;4.22;;;13.20;78.20;;;;;;5081291;28;20064;-74
2022/09/13 04:22:41;;;;;;;5.30;4.20;;;13.10;78.30;;;;;;5045113;28;20040;-75
2022/09/13 04:25:07;;;;;;;6.30;4.22;;;13.10;78.30;;;;;;5080213;28;20093;-75
2022/09/13 04:27:34;;;;;;;6.43;4.25;;;13.10;78.40;;;;;;5055942;28;20104;-75
2022/09/13 04:30:01;;;;;;;7.63;4.63;;;13.10;78.70;;;;;;5069673;28;20078;-74
2022/09/13 04:32:26;;;;;;;5.28;4.35;;;13.10;78.60;;;;;;5071082;28;20259;-76
2022/09/13 04:34:52;;;;;;;8.85;4.32;;;13.10;78.60;;;;;;5085234;28;20040;-76
2022/09/13 04:37:18;;;;;;;5.13;3.90;;;13.10;78.60;;;;;;5070486;28;20039;-75
2022/09/13 04:39:43;;;;;;;5.25;4.00;;;13.10;78.70;;;;;;5066969;28;20050;-75
2022/09/13 04:42:10;;;;;;;7.47;4.95;;;13.10;78.60;;;;;;5081095;28;20711;-75
2022/09/13 04:44:35;;;;;;;6.28;4.95;;;13.10;78.70;;;;;;5036334;28;20040;-76
2022/09/13 04:47:01;;;;;;;6.32;4.25;;;13.10;78.70;;;;;;5064614;28;20027;-76
2022/09/13 04:49:27;;;;;;;5.50;4.60;;;13.10;78.60;;;;;;5077377;28;20041;-73
2022/09/13 04:51:52;;;;;;;6.47;3.72;;;13.10;78.60;;;;;;5064546;28;20131;-76
2022/09/13 04:54:18;;;;;;;6.00;3.80;;;13.10;78.70;;;;;;5066181;28;20040;-75
2022/09/13 04:56:44;;;;;;;9.00;4.45;;;13.10;78.60;;;;;;5073492;28;20508;-75
2022/09/13 04:59:10;;;;;;;7.03;4.40;;;13.10;78.70;;;;;;5053371;28;20063;-75
2022/09/13 05:01:36;;;;;;;7.20;4.68;;;13.10;78.70;;;;;;5036600;28;20488;-75
2022/09/13 05:04:02;;;;;;;5.70;4.05;;;13.10;78.90;;;;;;5063209;28;20064;-75
2022/09/13 05:06:28;;;;;;;5.97;4.70;;;13.10;79.10;;;;;;5068930;28;20323;-75
2022/09/13 05:08:54;;;;;;;8.27;5.38;;;13.10;79.00;;;;;;5083939;28;20032;-75
2022/09/13 05:11:24;;;;;;;8.63;5.53;;;13.10;79.10;;;;;;5033787;28;20133;-75
2022/09/13 05:13:51;;;;;;;8.32;4.85;;;13.10;79.20;;;;;;5021249;28;20048;-76
2022/09/13 05:16:18;;;;;;;5.13;3.90;;;13.10;79.40;;;;;;5073128;28;20044;-75
2022/09/13 05:18:44;;;;;;;6.57;4.65;;;13.10;79.30;;;;;;5052393;28;20033;-75
2022/09/13 05:21:09;;;;;;;7.15;4.82;;;13.20;79.30;;;;;;5072004;28;20063;-75
2022/09/13 05:23:35;;;;;;;6.43;4.90;;;13.20;79.30;;;;;;5040123;28;20024;-75
2022/09/13 05:26:03;;;;;;;6.78;4.43;;;13.20;79.30;;;;;;5043134;28;20123;-75
2022/09/13 05:28:30;;;;;;;4.88;4.38;;;13.20;79.40;;;;;;5057969;28;20059;-75
2022/09/13 05:30:57;;;;;;;4.60;3.78;;;13.20;79.50;;;;;;5060810;28;20054;-74
2022/09/13 05:33:23;;;;;;;4.88;4.15;;;13.20;79.40;;;;;;5054441;28;20043;-76
2022/09/13 05:35:49;;;;;;;6.50;4.05;;;13.20;79.40;;;;;;5042482;28;20048;-75
2022/09/13 05:38:15;;;;;;;9.48;4.45;;;13.20;79.40;;;;;;5075657;28;20058;-75
2022/09/13 05:40:40;;;;;;;9.88;4.32;;;13.20;79.40;;;;;;5076213;28;20126;-76
2022/09/13 05:43:06;;;;;;;5.32;4.03;;;13.20;79.50;;;;;;5064327;28;20037;-75
2022/09/13 05:45:31;;;;;;;5.90;4.40;;;13.30;79.60;;;;;;5047819;28;20036;-75
2022/09/13 05:47:57;;;;;;;5.75;4.00;;;13.20;79.50;;;;;;5046402;28;20040;-75
2022/09/13 05:50:22;;;;;;;6.63;4.22;;;13.30;79.60;;;;;;5045769;28;20052;-75
2022/09/13 05:52:52;;;;;;;7.00;4.80;;;13.30;79.70;;;;;;5045400;28;20119;-77
2022/09/13 05:55:18;;;;;;;6.80;4.28;;;13.30;79.80;;;;;;5032601;28;20068;-76
2022/09/13 05:57:43;;;;;;;6.82;4.95;;;13.30;79.70;;;;;;5084998;28;20044;-76
2022/09/13 06:00:09;;;;;;;5.38;4.50;;;13.30;79.80;;;;;;5049762;28;20036;-75
2022/09/13 06:02:35;;;;;;;5.88;4.55;;;13.40;80.00;;;;;;5066233;28;20100;-74
2022/09/13 06:05:00;;;;;;;6.18;4.10;;;13.40;80.00;;;;;;5063125;28;20016;-75
2022/09/13 06:07:27;;;;;;;7.43;5.13;;;13.40;80.00;;;;;;5053463;28;20065;-76
2022/09/13 06:09:53;;;;;;;6.63;4.50;;;13.40;80.00;;;;;;5040490;28;20573;-74
2022/09/13 06:12:18;;;;;;;7.93;4.47;;;13.50;80.10;;;;;;5074689;28;20063;-74
2022/09/13 06:14:44;;;;;;;4.55;3.90;;;13.50;80.00;;;;;;5038133;28;20051;-75
2022/09/13 06:17:09;;;;;;;6.22;4.10;;;13.50;79.90;;;;;;5057377;28;20560;-75
2022/09/13 06:19:35;;;;;;;8.10;4.85;;;13.60;79.80;;;;;;5044243;28;20047;-74
2022/09/13 06:22:00;;;;;;;6.97;5.15;;;13.60;79.70;;;;;;5058269;28;20096;-74
2022/09/13 06:24:26;;;;;;;6.35;4.47;;;13.70;79.80;;;;;;5048352;28;20523;-74
2022/09/13 06:26:52;;;;;;;5.72;4.20;;;13.70;79.90;;;;;;5080813;28;20686;-75
2022/09/13 06:29:17;;;;;;;6.80;3.72;;;13.70;79.80;;;;;;5077189;28;20192;-75
2022/09/13 06:31:44;;;;;;;6.20;4.18;;;13.80;79.80;;;;;;5055867;28;20046;-75
2022/09/13 06:34:12;;;;;;;7.35;5.00;;;13.80;79.70;;;;;;5041841;28;20055;-76
2022/09/13 06:36:38;;;;;;;6.45;4.97;;;13.80;79.60;;;;;;5049137;28;20230;-75
2022/09/13 06:39:05;;;;;;;9.13;4.30;;;13.90;79.70;;;;;;5046699;28;20028;-75
2022/09/13 06:41:31;;;;;;;5.18;4.07;;;13.90;79.80;;;;;;5046765;28;20075;-76
2022/09/13 06:43:57;;;;;;;5.07;4.57;;;14.00;79.80;;;;;;5080439;28;20812;-75
2022/09/13 06:46:24;;;;;;;5.70;4.40;;;14.00;79.60;;;;;;5054077;28;20058;-76
2022/09/13 06:48:49;;;;;;;6.35;4.35;;;14.10;79.70;;;;;;5046316;28;20165;-74
2022/09/13 06:51:17;;;;;;;5.40;4.05;;;14.10;79.80;;;;;;5063773;28;20059;-76
2022/09/13 06:53:43;;;;;;;7.82;4.82;;;14.20;79.60;;;;;;5065329;28;20032;-74
2022/09/13 06:56:21;;;;;;;4.93;4.00;;;14.20;79.30;;;;;;5035552;28;20051;-75
2022/09/13 06:58:48;;;;;;;8.55;4.75;;;14.30;79.80;;;;;;5043844;28;20043;-75
2022/09/13 07:01:15;;;;;;;5.30;4.28;;;14.30;79.40;;;;;;5049115;28;20044;-76
2022/09/13 07:03:48;;;;;;;7.80;5.03;;;14.40;79.40;;;;;;5048199;28;20086;-75
2022/09/13 07:06:19;;;;;;;14.77;4.75;;;14.40;79.50;;;;;;5056343;28;20036;-76
2022/09/13 07:08:44;;;;;;;6.13;4.07;;;14.50;79.50;;;;;;5059635;28;20036;-75
2022/09/13 07:11:11;;;;;;;8.85;4.50;;;14.60;79.40;;;;;;5087447;28;20231;-75
2022/09/13 07:13:36;;;;;;;6.63;4.60;;;14.60;79.30;;;;;;5056271;28;20032;-74
2022/09/13 07:16:07;;;;;;;8.55;4.63;;;14.70;79.30;;;;;;5089365;28;20040;-74
2022/09/13 07:18:33;;;;;;;7.80;4.78;;;14.70;80.10;;;;;;5059629;28;20078;-76
2022/09/13 07:21:03;;;;;;;6.50;4.82;;;14.80;79.10;;;;;;5094676;28;20067;-75
2022/09/13 07:23:32;;;;;;;8.02;5.32;;;14.90;79.10;;;;;;5094773;28;20048;-75
2022/09/13 07:26:01;;;;;;;15.15;5.60;;;14.90;79.10;;;;;;5077263;28;20040;-75
2022/09/13 07:28:33;;;;;;;9.00;5.25;;;15.00;79.00;;;;;;5062941;28;20090;-75
2022/09/13 07:31:09;;;;;;;13.63;6.88;;;15.10;78.90;;;;;;5059013;28;20250;-75
2022/09/13 07:33:35;;;;;;;12.68;5.82;;;15.10;78.90;;;;;;5065478;28;20133;-75
2022/09/13 07:36:05;;;;;;;13.30;5.80;;;15.20;78.70;;;;;;5053532;28;20146;-76
2022/09/13 07:38:34;;;;;;;8.07;5.45;;;15.20;78.60;;;;;;5070798;28;20044;-75
2022/09/13 07:40:59;;;;;;;8.00;5.70;;;15.20;78.60;;;;;;5065461;28;20066;-75
2022/09/13 07:43:25;;;;;;;12.57;6.53;;;15.30;78.60;;;;;;5084852;28;20047;-75
2022/09/13 07:46:04;;;;;;;10.00;6.07;;;15.40;78.60;;;;;;5085917;28;20032;-75
2022/09/13 07:48:32;;;;;;;9.55;5.40;;;15.40;78.80;;;;;;5067597;28;20055;-75
2022/09/13 07:51:05;;;;;;;11.02;6.43;;;15.40;78.60;;;;;;5060212;28;20056;-76
2022/09/13 07:53:30;;;;;;;9.57;6.40;;;15.50;78.60;;;;;;5073269;28;20327;-76
2022/09/13 07:56:15;;;;;;;8.30;6.15;;;15.50;78.50;;;;;;5073029;28;20036;-75
2022/09/13 07:58:42;;;;;;;10.25;6.50;;;15.60;78.70;;;;;;5055436;28;20048;-75
2022/09/13 08:01:07;;;;;;;18.00;7.80;;;15.70;78.30;;;;;;5070954;28;20032;-75
2022/09/13 08:03:33;;;;;;;9.57;6.80;;;15.70;78.20;;;;;;5074467;28;20039;-75
2022/09/13 08:06:00;;;;;;;11.27;6.53;;;15.80;78.20;;;;;;5037538;28;20043;-74
2022/09/13 08:08:25;;;;;;;10.02;6.93;;;15.90;78.20;;;;;;5057440;28;20179;-74
2022/09/13 08:10:51;;;;;;;13.15;7.88;;;15.90;78.10;;;;;;5039232;28;20484;-75
2022/09/13 08:13:16;;;;;;;13.60;7.28;;;16.00;78.00;;;;;;5075214;28;20037;-75
2022/09/13 08:15:42;;;;;;;9.68;6.55;;;16.10;78.00;;;;;;5057928;28;20420;-75
2022/09/13 08:18:08;;;;;;;8.43;5.53;;;16.20;77.80;;;;;;5054213;28;20468;-75
2022/09/13 08:20:40;;;;;;;10.38;6.00;;;16.20;77.70;;;;;;5087871;28;20047;-75
2022/09/13 08:23:05;;;;;;;;;;;16.30;77.70;;;;;;5054954;28;20028;-74
2022/09/13 08:25:34;;;;;;;15.40;7.43;;;16.40;77.50;;;;;;5040680;28;19985;-75
2022/09/13 08:28:01;;;;;;;10.07;7.05;;;16.50;77.40;;;;;;5026454;28;20207;-76
2022/09/13 08:30:32;;;;;;;12.20;7.13;;;16.50;77.20;;;;;;5067728;28;20040;-75
2022/09/13 08:32:58;;;;;;;9.70;5.78;;;16.60;77.10;;;;;;5026490;28;20040;-75
2022/09/13 08:35:24;;;;;;;10.73;6.55;;;16.70;77.00;;;;;;5069088;28;20047;-74
2022/09/13 08:37:50;;;;;;;9.80;6.55;;;16.70;76.90;;;;;;5039627;28;20036;-74
2022/09/13 08:40:15;;;;;;;10.07;7.00;;;16.80;76.70;;;;;;5053093;28;20584;-74
2022/09/13 08:42:55;;;;;;;22.15;8.55;;;16.90;76.70;;;;;;5038711;28;20424;-73
2022/09/13 08:45:23;;;;;;;11.85;7.28;;;17.00;76.60;;;;;;5051754;28;20078;-75
2022/09/13 08:48:02;;;;;;;12.70;7.22;;;17.10;76.40;;;;;;5052055;28;20412;-75
2022/09/13 08:50:32;;;;;;;13.80;7.82;;;17.10;76.30;;;;;;5050300;28;20048;-74
2022/09/13 08:53:13;;;;;;;12.98;7.40;;;17.20;76.10;;;;;;5040732;28;20066;-75
2022/09/13 08:55:41;;;;;;;12.90;7.68;;;17.30;75.90;;;;;;5056274;28;20386;-74
2022/09/13 08:58:24;;;;;;;13.93;7.70;;;17.30;75.70;;;;;;5043515;28;20032;-75
2022/09/13 09:00:53;;;;;;;10.32;6.55;;;17.30;75.60;;;;;;5049829;28;20035;-74
2022/09/13 09:03:22;;;;;;;12.02;7.57;;;17.40;75.50;;;;;;5058971;28;21145;-75
2022/09/13 09:05:49;;;;;;;11.73;6.80;;;17.40;75.30;;;;;;5040581;28;20070;-75
2022/09/13 09:08:23;;;;;;;9.57;6.97;;;17.50;75.20;;;;;;5044778;28;20032;-75
2022/09/13 09:10:49;;;;;;;7.85;6.00;;;17.50;75.10;;;;;;5047175;28;20044;-76
2022/09/13 09:13:15;;;;;;;8.57;6.05;;;17.60;75.10;;;;;;5040011;28;20187;-75
2022/09/13 09:15:52;;;;;;;8.57;6.70;;;17.60;75.00;;;;;;5067337;28;20507;-75
2022/09/13 09:18:22;;;;;;;9.15;5.80;;;17.70;75.00;;;;;;5066532;28;20039;-77
2022/09/13 09:20:49;;;;;;;8.43;5.95;;;17.70;74.80;;;;;;5047923;28;20035;-75
2022/09/13 09:23:37;;;;;;;6.20;5.35;;;17.80;74.80;;;;;;5034910;28;20040;-75
2022/09/13 09:26:25;;;;;;;10.25;6.22;;;17.90;74.80;;;;;;5070331;28;20149;-76
2022/09/13 09:28:58;;;;;;;8.80;5.38;;;17.90;74.80;;;;;;5054194;28;20032;-76
2022/09/13 09:31:45;;;;;;;8.35;5.82;;;18.00;74.60;;;;;;5051752;28;20070;-76
2022/09/13 09:34:26;;;;;;;6.45;4.82;;;18.10;74.50;;;;;;5055687;28;20037;-75
2022/09/13 09:37:20;;;;;;;7.43;5.28;;;18.20;74.40;;;;;;5018682;28;20039;-76
2022/09/13 09:39:45;;;;;;;8.30;5.80;;;18.30;74.30;;;;;;5047341;28;20028;-75
2022/09/13 09:42:20;;;;;;;8.15;5.30;;;18.40;74.00;;;;;;5035400;28;20041;-75
2022/09/13 09:44:48;;;;;;;8.80;5.60;;;18.50;74.00;;;;;;5053006;28;20040;-75
2022/09/13 09:47:21;;;;;;;8.23;5.50;;;18.60;73.90;;;;;;5040196;28;20160;-75
2022/09/13 09:50:10;;;;;;;6.95;5.35;;;18.70;74.40;;;;;;5051991;28;20039;-77
2022/09/13 09:53:06;;;;;;;8.35;5.57;;;18.80;73.50;;;;;;5059796;28;20037;-77
2022/09/13 09:55:36;;;;;;;7.60;5.55;;;19.00;73.50;;;;;;5068514;28;20040;-76
2022/09/13 09:58:08;;;;;;;7.15;4.82;;;19.20;73.10;;;;;;5067721;28;20040;-75
2022/09/13 10:00:35;;;;;;;6.50;5.13;;;19.30;72.70;;;;;;5054937;28;20048;-76
2022/09/13 10:03:07;;;;;;;7.82;5.97;;;19.40;72.40;;;;;;5050843;28;20020;-76
2022/09/13 10:05:33;;;;;;;5.90;5.13;;;19.60;72.10;;;;;;5037682;28;20052;-76
2022/09/13 10:08:05;;;;;;;5.00;4.50;;;19.70;71.80;;;;;;5048491;28;20059;-76
2022/09/13 10:10:35;;;;;;;7.28;5.68;;;19.80;71.70;;;;;;5064554;28;20628;-76
2022/09/13 10:13:01;;;;;;;5.53;4.85;;;20.00;71.60;;;;;;5051870;28;20032;-76
2022/09/13 10:15:31;;;;;;;8.52;5.55;;;20.10;71.20;;;;;;5071478;28;20428;-77
2022/09/13 10:18:15;;;;;;;7.22;5.50;;;20.20;70.90;;;;;;5052350;28;20068;-77
2022/09/13 10:20:40;;;;;;;7.13;4.72;;;20.40;70.70;;;;;;5036011;28;20044;-76
2022/09/13 10:23:14;;;;;;;6.32;5.22;;;20.50;70.50;;;;;;5053329;28;20492;-77
2022/09/13 10:25:42;;;;;;;7.15;5.50;;;20.50;70.00;;;;;;5069108;28;20048;-76
2022/09/13 10:28:12;;;;;;;7.35;5.32;;;20.60;69.80;;;;;;5029801;28;20064;-76
2022/09/13 10:30:47;;;;;;;7.70;5.00;;;20.70;69.60;;;;;;5037000;28;20037;-76
2022/09/13 10:33:21;;;;;;;8.00;4.93;;;20.70;69.30;;;;;;5029524;28;20036;-77
2022/09/13 10:35:47;;;;;;;8.25;5.63;;;20.80;69.20;;;;;;5050673;28;20036;-76
2022/09/13 10:38:30;;;;;;;6.30;4.10;;;20.90;69.10;;;;;;5043133;28;20032;-76
2022/09/13 10:40:55;;;;;;;7.55;5.13;;;20.90;68.70;;;;;;5041948;28;20033;-76
2022/09/13 10:43:21;;;;;;;5.80;5.13;;;21.00;68.70;;;;;;5057192;28;20094;-76
2022/09/13 10:45:50;;;;;;;5.47;4.35;;;21.00;68.50;;;;;;5060570;28;20048;-76
2022/09/13 10:48:16;;;;;;;5.90;4.53;;;21.10;68.30;;;;;;5057963;28;20036;-77
2022/09/13 10:50:58;;;;;;;6.18;3.95;;;21.10;68.10;;;;;;5061307;28;20040;-77
2022/09/13 10:53:38;;;;;;;5.85;4.28;;;21.20;68.10;;;;;;5045452;28;20028;-77
2022/09/13 10:56:05;;;;;;;6.75;4.32;;;21.20;68.00;;;;;;5043058;28;20048;-74
2022/09/13 10:58:31;;;;;;;6.53;4.75;;;21.20;68.70;;;;;;5052988;28;20833;-74
2022/09/13 11:00:59;;;;;;;5.63;4.45;;;21.20;67.80;;;;;;5040124;28;20043;-75
2022/09/13 11:03:48;;;;;;;4.40;4.00;;;21.20;67.70;;;;;;5072938;28;20039;-74
2022/09/13 11:06:35;;;;;;;7.07;3.85;;;21.30;67.60;;;;;;5057122;28;20040;-74
2022/09/13 11:09:20;;;;;;;7.50;3.63;;;21.30;67.20;;;;;;5059288;28;20044;-75
2022/09/13 11:11:52;;;;;;;4.55;3.75;;;21.30;67.10;;;;;;5054085;28;20040;-75
2022/09/13 11:14:17;;;;;;;6.05;3.75;;;21.30;67.10;;;;;;5057848;28;20067;-74
2022/09/13 11:17:05;;;;;;;4.28;3.85;;;21.30;67.00;;;;;;5072888;28;20209;-76
2022/09/13 11:19:31;;;;;;;4.00;3.20;;;21.30;66.80;;;;;;5069038;28;20082;-77
2022/09/13 11:22:15;;;;;;;4.78;3.50;;;21.30;66.90;;;;;;5069618;28;20446;-77
2022/09/13 11:24:56;;;;;;;5.95;3.15;;;21.20;66.80;;;;;;5087790;28;20028;-76
2022/09/13 11:27:52;;;;;;;4.43;3.42;;;21.20;66.90;;;;;;5058356;28;20035;-76
2022/09/13 11:30:22;;;;;;;5.07;3.80;;;21.20;67.10;;;;;;5060824;28;20131;-76
2022/09/13 11:33:25;;;;;;;6.00;3.70;;;21.20;67.10;;;;;;5045680;28;20110;-76
2022/09/13 11:36:16;;;;;;;4.70;3.63;;;21.20;67.10;;;;;;5090862;28;20036;-76
2022/09/13 11:38:57;;;;;;;3.67;3.15;;;21.20;67.10;;;;;;5059005;28;20089;-76
2022/09/13 11:41:41;;;;;;;;;;;21.20;67.10;;;;;;5033900;28;20481;-75
2022/09/13 11:44:28;;;;;;;6.60;3.67;;;21.20;67.10;;;;;;5077855;28;19930;-76
2022/09/13 11:47:28;;;;;;;3.75;3.40;;;21.20;67.10;;;;;;5056322;28;20024;-76
2022/09/13 11:50:08;;;;;;;3.63;3.28;;;21.20;67.10;;;;;;5045325;28;20043;-76
2022/09/13 11:52:47;;;;;;;4.82;3.38;;;21.20;67.10;;;;;;5058169;28;20412;-76
2022/09/13 11:55:32;;;;;;;6.68;3.85;;;21.20;67.10;;;;;;5061902;28;20036;-75
2022/09/13 11:58:07;;;;;;;3.88;3.47;;;21.30;67.20;;;;;;5059844;28;20052;-76
2022/09/13 12:00:48;;;;;;;6.15;3.60;;;21.30;67.20;;;;;;5045969;28;20036;-76
2022/09/13 12:03:26;;;;;;;4.85;3.47;;;21.30;67.20;;;;;;5072752;28;20042;-76
2022/09/13 12:05:58;;;;;;;4.80;3.17;;;21.30;67.20;;;;;;5069128;28;20058;-76
2022/09/13 12:08:29;;;;;;;5.18;3.40;;;21.40;67.20;;;;;;5042852;28;20036;-78
2022/09/13 12:10:56;;;;;;;4.70;3.60;;;21.40;67.10;;;;;;5042904;28;20751;-75
2022/09/13 12:13:45;;;;;;;3.60;2.90;;;21.40;67.10;;;;;;5028492;28;20396;-76
2022/09/13 12:16:14;;;;;;;3.10;2.90;;;21.40;66.90;;;;;;5034702;28;20086;-76
2022/09/13 12:18:52;;;;;;;3.95;3.22;;;21.40;66.80;;;;;;5045565;28;20047;-76
2022/09/13 12:21:22;;;;;;;4.65;3.08;;;21.50;66.80;;;;;;5057912;28;20032;-78
2022/09/13 12:23:57;;;;;;;6.88;3.47;;;21.50;66.60;;;;;;5076788;28;20114;-76
2022/09/13 12:26:50;;;;;;;4.18;2.38;;;21.50;66.50;;;;;;5050154;28;20378;-76
2022/09/13 12:29:29;;;;;;;2.85;2.58;;;21.70;66.40;;;;;;5062622;28;20036;-75
2022/09/13 12:31:57;;;;;;;4.40;2.70;;;21.80;66.30;;;;;;5053619;28;20025;-77
2022/09/13 12:34:41;;;;;;;3.45;2.75;;;21.80;66.10;;;;;;5062079;28;20407;-77
2022/09/13 12:37:10;;;;;;;5.03;3.40;;;21.90;65.90;;;;;;5034724;28;20033;-77
2022/09/13 12:39:52;;;;;;;3.28;2.88;;;22.00;65.90;;;;;;5079876;28;20033;-76
2022/09/13 12:42:39;;;;;;;3.05;2.80;;;22.00;66.60;;;;;;5044423;28;20028;-76
2022/09/13 12:45:24;;;;;;;4.90;3.00;;;22.10;65.70;;;;;;5078816;28;20081;-76
2022/09/13 12:48:06;;;;;;;2.97;2.50;;;22.20;65.60;;;;;;5061189;28;20096;-74
2022/09/13 12:50:31;;;;;;;4.40;2.60;;;22.20;65.50;;;;;;5061095;28;20043;-74
2022/09/13 12:53:19;;;;;;;3.05;2.75;;;22.20;65.20;;;;;;5074651;28;20036;-74
2022/09/13 12:55:51;;;;;;;2.50;2.17;;;22.30;64.60;;;;;;5075924;28;20104;-74
2022/09/13 12:58:48;;;;;;;4.00;3.40;;;22.40;64.60;;;;;;5078665;28;20024;-73
2022/09/13 13:01:23;;;;;;;4.90;2.38;;;22.40;63.90;;;;;;5062265;28;20215;-74
2022/09/13 13:04:08;;;;;;;2.38;2.17;;;22.50;64.10;;;;;;5064258;28;20024;-75
2022/09/13 13:06:51;;;;;;;2.28;2.08;;;22.60;64.00;;;;;;5063357;28;20033;-75
2022/09/13 13:09:22;;;;;;;3.42;2.15;;;22.70;63.50;;;;;;5063958;28;20786;-75
2022/09/13 13:11:48;;;;;;;;;;;22.80;63.40;;;;;;5064127;28;20483;-76
2022/09/13 13:14:45;;;;;;;2.15;2.00;;;22.90;63.40;;;;;;5045215;28;19920;-75